Time;durP1;ratioP1;P1;durP2;ratioP2;P2;SDS_P1;SDS_P2;PMS_P1;PMS_P2;Temp;Humidity;BMP_temperature;BMP_pressure;BME280_temperature;BME280_humidity;BME280_pressure;Samples;Min_cycle;Max_cycle;Signal;HPM_P1;HPM_P2
2023/07/23 00:01:28;;;;;;;8.57;6.60;;;;;;;15.75;100.00;100806.47;5009689;28;20081;-83
2023/07/23 00:03:53;;;;;;;10.50;7.10;;;;;;;15.76;100.00;100800.19;5028390;28;20025;-83
2023/07/23 00:06:19;;;;;;;8.65;7.10;;;;;;;15.77;100.00;100797.38;5029346;28;20474;-82
2023/07/23 00:08:44;;;;;;;10.57;6.82;;;;;;;15.74;100.00;100797.69;5026459;28;20057;-84
2023/07/23 00:11:09;;;;;;;9.25;6.80;;;;;;;15.77;100.00;100791.22;5028756;28;20029;-84
2023/07/23 00:13:35;;;;;;;9.77;7.45;;;;;;;15.75;100.00;100793.19;5024301;28;20030;-84
2023/07/23 00:16:00;;;;;;;8.80;6.97;;;;;;;15.76;100.00;100785.09;5026648;28;20033;-85
2023/07/23 00:18:26;;;;;;;10.45;7.30;;;;;;;15.77;100.00;100783.28;5028215;28;20066;-85
2023/07/23 00:20:51;;;;;;;9.52;6.97;;;;;;;15.77;100.00;100786.75;5028693;28;20482;-83
2023/07/23 00:23:16;;;;;;;8.73;6.80;;;;;;;15.74;100.00;100772.97;5028000;28;20025;-84
2023/07/23 00:25:42;;;;;;;10.13;6.85;;;;;;;15.78;100.00;100769.03;5029638;28;20102;-84
2023/07/23 00:28:10;;;;;;;9.63;7.43;;;;;;;15.76;100.00;100768.34;5027438;28;20029;-83
2023/07/23 00:30:35;;;;;;;10.32;7.05;;;;;;;15.74;100.00;100765.00;5025866;28;20108;-84
2023/07/23 00:33:01;;;;;;;9.05;6.85;;;;;;;15.72;100.00;100761.66;5020054;28;20129;-82
2023/07/23 00:35:26;;;;;;;7.85;6.38;;;;;;;15.71;100.00;100760.00;5027973;28;20473;-84
2023/07/23 00:37:51;;;;;;;9.55;6.30;;;;;;;15.71;100.00;100755.53;5027667;28;20025;-84
2023/07/23 00:40:17;;;;;;;9.15;6.35;;;;;;;15.69;100.00;100746.88;5029136;28;20026;-84
2023/07/23 00:42:42;;;;;;;9.10;6.22;;;;;;;15.66;100.00;100742.72;5031401;28;20021;-83
2023/07/23 00:45:08;;;;;;;10.00;6.30;;;;;;;15.66;100.00;100742.72;5029969;28;20030;-84
2023/07/23 00:47:34;;;;;;;8.25;5.93;;;;;;;15.68;100.00;100733.78;5026892;28;20028;-84
2023/07/23 00:49:59;;;;;;;7.55;5.97;;;;;;;15.64;100.00;100733.25;5027258;28;20084;-84
2023/07/23 00:52:25;;;;;;;8.30;6.10;;;;;;;15.63;100.00;100727.09;5031438;28;20021;-83
2023/07/23 00:54:50;;;;;;;8.75;6.25;;;;;;;15.63;100.00;100726.25;5030511;28;20060;-83
2023/07/23 00:57:16;;;;;;;15.48;6.40;;;;;;;15.60;100.00;100713.28;5014189;28;20021;-83
2023/07/23 00:59:43;;;;;;;7.57;5.75;;;;;;;15.60;100.00;100714.09;5012369;28;20562;-83
2023/07/23 01:02:09;;;;;;;10.20;6.10;;;;;;;15.60;100.00;100708.81;4996021;28;20044;-82
2023/07/23 01:04:35;;;;;;;9.27;5.70;;;;;;;15.62;100.00;100706.03;5025433;28;20120;-83
2023/07/23 01:07:05;;;;;;;12.02;5.90;;;;;;;15.59;100.00;100699.19;5030729;28;20018;-83
2023/07/23 01:09:31;;;;;;;8.70;5.68;;;;;;;15.59;100.00;100699.19;5031670;28;20612;-83
2023/07/23 01:11:58;;;;;;;7.47;5.25;;;;;;;15.58;100.00;100692.22;5031102;28;20025;-83
2023/07/23 01:14:24;;;;;;;10.18;5.90;;;;;;;15.56;100.00;100688.00;5032191;28;20028;-84
2023/07/23 01:16:49;;;;;;;10.13;6.40;;;;;;;15.54;100.00;100688.16;5031519;28;20029;-84
2023/07/23 01:19:15;;;;;;;8.82;6.45;;;;;;;15.56;100.00;100683.53;5031057;28;20033;-83
2023/07/23 01:21:44;;;;;;;14.00;8.23;;;;;;;15.54;100.00;100682.84;5022691;28;20112;-83
2023/07/23 01:24:12;;;;;;;14.50;7.93;;;;;;;15.54;100.00;100677.53;4994861;28;20030;-82
2023/07/23 01:26:37;;;;;;;13.80;9.00;;;;;;;15.54;100.00;100669.59;5012401;28;20041;-82
2023/07/23 01:29:03;;;;;;;13.00;9.00;;;;;;;15.51;100.00;100669.06;5010306;28;20018;-82
2023/07/23 01:31:28;;;;;;;13.05;9.23;;;;;;;15.51;100.00;100661.09;5011122;28;20117;-83
2023/07/23 01:33:54;;;;;;;14.50;9.40;;;;;;;15.51;100.00;100664.59;5020313;28;20029;-83
2023/07/23 01:36:20;;;;;;;13.38;8.45;;;;;;;15.49;100.00;100658.59;5032289;28;20044;-83
2023/07/23 01:38:45;;;;;;;13.68;8.25;;;;;;;15.49;100.00;100648.00;5022778;28;20545;-83
2023/07/23 01:41:11;;;;;;;10.20;7.70;;;;;;;15.48;100.00;100643.69;5017290;28;20055;-83
2023/07/23 01:43:38;;;;;;;10.38;7.13;;;;;;;15.48;100.00;100648.16;5031802;28;20481;-83
2023/07/23 01:46:03;;;;;;;9.95;7.00;;;;;;;15.48;100.00;100640.19;5031912;28;20108;-83
2023/07/23 01:48:29;;;;;;;9.07;6.85;;;;;;;15.46;100.00;100640.34;5030199;28;20485;-82
2023/07/23 01:50:54;;;;;;;10.82;7.20;;;;;;;15.45;100.00;100632.53;5030591;28;20087;-83
2023/07/23 01:53:19;;;;;;;8.63;6.90;;;;;;;15.44;100.00;100636.19;5028987;28;20504;-82
2023/07/23 01:55:45;;;;;;;11.80;6.28;;;;;;;15.43;100.00;100622.09;5027530;28;20037;-82
2023/07/23 01:58:10;;;;;;;10.75;6.25;;;;;;;15.44;100.00;100626.41;5014825;28;21769;-82
2023/07/23 02:00:35;;;;;;;9.70;6.35;;;;;;;15.40;100.00;100622.38;5030685;28;20432;-81
2023/07/23 02:03:01;;;;;;;10.00;6.28;;;;;;;15.43;100.00;100616.78;5029047;28;20095;-82
2023/07/23 02:05:26;;;;;;;12.05;6.18;;;;;;;15.43;100.00;100614.13;5030296;28;20033;-83
2023/07/23 02:07:51;;;;;;;9.40;6.20;;;;;;;15.41;100.00;100613.44;5031136;28;20385;-82
2023/07/23 02:10:20;;;;;;;9.50;6.25;;;;;;;15.42;100.00;100608.97;5030160;28;20390;-81
2023/07/23 02:12:46;;;;;;;7.53;5.70;;;;;;;15.42;100.00;100607.16;5021500;28;20474;-81
2023/07/23 02:15:11;;;;;;;8.25;5.80;;;;;;;15.42;100.00;100601.84;5005334;28;20021;-80
2023/07/23 02:17:37;;;;;;;7.85;5.70;;;;;;;15.41;99.69;100594.88;5012753;28;20500;-81
2023/07/23 02:20:04;;;;;;;6.60;5.90;;;;;;;15.44;99.31;100591.94;5011860;28;20040;-81
2023/07/23 02:22:29;;;;;;;11.57;5.60;;;;;;;15.44;98.86;100589.28;5010077;28;20806;-82
2023/07/23 02:24:54;;;;;;;11.77;5.47;;;;;;;15.45;98.37;100585.66;5030632;28;20048;-81
2023/07/23 02:27:20;;;;;;;11.70;5.80;;;;;;;15.46;98.71;100583.81;5012521;28;20114;-80
2023/07/23 02:29:45;;;;;;;8.02;5.70;;;;;;;15.47;98.62;100588.16;5023542;28;20081;-82
2023/07/23 02:32:10;;;;;;;5.88;5.05;;;;;;;15.46;98.70;100584.66;5029573;28;20032;-81
2023/07/23 02:34:36;;;;;;;7.03;5.28;;;;;;;15.48;97.96;100577.38;5012103;28;20029;-81
2023/07/23 02:37:02;;;;;;;7.57;5.05;;;;;;;15.47;97.96;100573.06;5012584;28;20448;-80
2023/07/23 02:39:27;;;;;;;10.02;5.50;;;;;;;15.48;97.15;100573.91;5012844;28;20026;-80
2023/07/23 02:41:52;;;;;;;8.02;4.93;;;;;;;15.48;97.50;100569.44;5030846;28;20048;-81
2023/07/23 02:44:18;;;;;;;7.32;5.00;;;;;;;15.50;96.20;100569.28;5027503;28;20064;-81
2023/07/23 02:46:43;;;;;;;8.30;4.88;;;;;;;15.49;96.02;100570.25;5004278;28;20116;-80
2023/07/23 02:49:08;;;;;;;7.45;4.70;;;;;;;15.52;95.83;100570.78;4995835;28;20072;-81
2023/07/23 02:51:34;;;;;;;6.60;4.70;;;;;;;15.53;95.28;100567.16;5028233;28;20101;-80
2023/07/23 02:53:59;;;;;;;8.20;5.05;;;;;;;15.54;94.79;100560.03;5011075;28;20478;-81
2023/07/23 02:56:25;;;;;;;7.00;4.70;;;;;;;15.54;94.16;100562.69;5018681;28;20021;-81
2023/07/23 02:58:50;;;;;;;9.07;5.03;;;;;;;15.57;93.70;100557.91;5009883;28;20022;-79
2023/07/23 03:01:15;;;;;;;6.68;4.53;;;;;;;15.58;93.28;100561.41;5017208;28;20600;-80
2023/07/23 03:03:47;;;;;;;8.73;4.78;;;;;;;15.59;93.83;100561.25;5028527;28;20075;-80
2023/07/23 03:06:13;;;;;;;5.40;4.57;;;;;;;15.59;92.92;100555.97;5027980;28;20028;-80
2023/07/23 03:08:38;;;;;;;6.78;4.55;;;;;;;15.62;92.03;100561.00;5012522;28;20029;-81
2023/07/23 03:11:05;;;;;;;7.13;4.60;;;;;;;15.63;91.86;100551.22;5028538;28;20029;-80
2023/07/23 03:13:31;;;;;;;7.38;4.60;;;;;;;15.63;92.29;100552.03;5027700;28;20025;-80
2023/07/23 03:15:56;;;;;;;8.23;5.00;;;;;;;15.61;92.87;100546.06;5010728;28;20112;-80
2023/07/23 03:18:22;;;;;;;8.10;5.55;;;;;;;15.62;92.01;100541.59;5020742;28;20018;-80
2023/07/23 03:20:47;;;;;;;9.43;5.03;;;;;;;15.61;91.59;100538.09;5006960;28;20033;-81
2023/07/23 03:23:12;;;;;;;9.82;5.25;;;;;;;15.62;91.88;100545.09;5028916;28;20120;-81
2023/07/23 03:25:38;;;;;;;7.20;4.68;;;;;;;15.63;91.47;100544.09;5028819;28;20025;-81
2023/07/23 03:28:03;;;;;;;4.88;4.38;;;;;;;15.64;91.30;100548.41;5006455;28;20022;-80
2023/07/23 03:30:29;;;;;;;8.50;5.20;;;;;;;15.65;90.78;100550.06;4992288;28;20627;-80
2023/07/23 03:32:55;;;;;;;7.65;4.97;;;;;;;15.63;91.24;100546.75;4991510;28;20187;-81
2023/07/23 03:35:21;;;;;;;6.72;4.72;;;;;;;15.63;90.70;100546.75;5021155;28;20105;-81
2023/07/23 03:37:47;;;;;;;6.72;4.68;;;;;;;15.65;90.99;100544.78;5008276;28;20080;-81
2023/07/23 03:40:12;;;;;;;5.68;4.35;;;;;;;15.66;89.71;100541.13;5028466;28;20030;-82
2023/07/23 03:42:38;;;;;;;8.27;4.53;;;;;;;15.70;88.88;100540.81;5012370;28;20441;-80
2023/07/23 03:45:04;;;;;;;7.90;4.50;;;;;;;15.71;88.89;100537.19;5029056;28;20022;-81
2023/07/23 03:47:29;;;;;;;7.68;4.40;;;;;;;15.74;88.44;100537.69;5009577;28;20533;-81
2023/07/23 03:49:55;;;;;;;5.80;4.53;;;;;;;15.73;88.71;100545.81;5028774;28;20033;-81
2023/07/23 03:52:22;;;;;;;7.30;4.10;;;;;;;15.73;87.95;100541.34;5026358;28;20083;-81
2023/07/23 03:54:47;;;;;;;7.07;4.32;;;;;;;15.76;87.29;100538.38;5027400;28;20029;-80
2023/07/23 03:57:12;;;;;;;8.13;4.10;;;;;;;15.78;87.41;100538.22;5029632;28;20018;-81
2023/07/23 03:59:40;;;;;;;8.23;4.07;;;;;;;15.78;87.74;100543.53;5027383;28;20029;-80
2023/07/23 04:02:06;;;;;;;6.75;4.20;;;;;;;15.79;86.86;100539.88;5010146;28;20053;-82
2023/07/23 04:04:33;;;;;;;6.55;3.90;;;;;;;15.79;86.13;100546.03;5029568;28;20036;-81
2023/07/23 04:06:58;;;;;;;8.77;4.50;;;;;;;15.80;86.37;100542.38;5029650;28;20034;-81
2023/07/23 04:09:24;;;;;;;7.70;3.90;;;;;;;15.83;85.60;100544.72;5026740;28;20474;-82
2023/07/23 04:11:49;;;;;;;4.85;4.20;;;;;;;15.86;85.66;100546.25;5024309;28;20101;-81
2023/07/23 04:14:15;;;;;;;9.13;4.55;;;;;;;15.86;84.93;100547.06;5009272;28;20022;-80
2023/07/23 04:16:42;;;;;;;5.85;3.88;;;;;;;15.86;85.07;100544.41;5012277;28;20050;-82
2023/07/23 04:19:10;;;;;;;8.77;4.00;;;;;;;15.87;84.28;100551.38;5033062;28;20535;-81
2023/07/23 04:21:36;;;;;;;5.10;3.72;;;;;;;15.90;85.08;100543.13;5032883;28;20060;-81
2023/07/23 04:24:02;;;;;;;6.15;3.67;;;;;;;15.93;83.78;100547.28;5029898;28;20029;-81
2023/07/23 04:26:28;;;;;;;8.85;4.10;;;;;;;15.93;83.73;100545.47;5011817;28;20084;-81
2023/07/23 04:28:54;;;;;;;4.88;3.70;;;;;;;15.97;83.84;100543.31;5024988;28;20046;-80
2023/07/23 04:31:19;;;;;;;5.93;3.75;;;;;;;16.00;83.93;100543.00;5031961;28;20017;-81
2023/07/23 04:33:45;;;;;;;5.47;4.03;;;;;;;16.02;83.69;100541.06;5032380;28;20061;-81
2023/07/23 04:36:12;;;;;;;7.18;3.85;;;;;;;16.03;83.79;100542.72;5032335;28;20536;-82
2023/07/23 04:38:38;;;;;;;5.88;3.92;;;;;;;16.04;83.59;100544.38;5033159;28;20033;-82
2023/07/23 04:41:04;;;;;;;10.32;4.18;;;;;;;16.06;83.48;100539.75;5031322;28;20025;-81
2023/07/23 04:43:30;;;;;;;4.72;3.42;;;;;;;16.08;83.19;100551.03;5011326;28;20044;-80
2023/07/23 04:45:55;;;;;;;7.65;4.20;;;;;;;16.09;84.02;100547.41;5032908;28;20033;-80
2023/07/23 04:48:21;;;;;;;5.93;3.67;;;;;;;16.11;83.00;100539.28;5031463;28;20021;-80
2023/07/23 04:50:57;;;;;;;6.60;3.88;;;;;;;16.11;82.91;100533.97;5030690;28;20029;-80
2023/07/23 04:53:23;;;;;;;7.10;3.80;;;;;;;16.12;82.56;100540.94;5030702;28;20482;-81
2023/07/23 04:55:53;;;;;;;6.70;3.83;;;;;;;16.14;82.79;100541.63;5008324;28;20446;-81
2023/07/23 04:58:20;;;;;;;7.75;4.00;;;;;;;16.14;83.43;100539.81;5017212;28;20025;-82
2023/07/23 05:00:46;;;;;;;8.13;4.15;;;;;;;16.15;85.54;100536.16;5025543;28;20060;-81
2023/07/23 05:03:11;;;;;;;6.07;3.80;;;;;;;16.19;84.14;100537.50;5003640;28;20068;-82
2023/07/23 05:05:49;;;;;;;7.80;4.10;;;;;;;16.20;85.60;100533.03;5030127;28;20021;-81
2023/07/23 05:08:14;;;;;;;5.95;3.88;;;;;;;16.18;83.89;100535.00;5032632;28;20021;-81
2023/07/23 05:10:40;;;;;;;4.93;3.97;;;;;;;16.20;85.08;100531.19;5030345;28;20045;-80
2023/07/23 05:13:05;;;;;;;8.95;4.30;;;;;;;16.18;85.43;100541.16;5025022;28;20111;-82
2023/07/23 05:15:31;;;;;;;8.45;4.05;;;;;;;16.19;84.97;100542.81;4997006;28;20048;-81
2023/07/23 05:17:56;;;;;;;6.78;4.28;;;;;;;16.19;85.23;100537.50;5013735;28;20026;-81
2023/07/23 05:20:22;;;;;;;7.15;4.10;;;;;;;16.19;86.25;100545.47;5001558;28;20120;-82
2023/07/23 05:22:47;;;;;;;5.47;3.97;;;;;;;16.17;86.84;100539.47;5030649;28;20025;-82
2023/07/23 05:25:12;;;;;;;7.78;3.88;;;;;;;16.18;84.38;100545.63;5031374;28;20382;-81
2023/07/23 05:27:38;;;;;;;8.30;3.85;;;;;;;16.17;86.15;100536.84;5029848;28;20377;-81
2023/07/23 05:30:05;;;;;;;6.03;4.00;;;;;;;16.16;88.03;100537.00;5013205;28;20035;-81
2023/07/23 05:32:31;;;;;;;4.38;3.80;;;;;;;16.14;87.83;100539.81;5024787;28;20025;-81
2023/07/23 05:34:56;;;;;;;6.15;3.85;;;;;;;16.14;85.96;100533.66;5013640;28;20021;-81
2023/07/23 05:37:26;;;;;;;6.57;3.85;;;;;;;16.17;86.47;100539.47;5031390;28;20025;-79
2023/07/23 05:39:53;;;;;;;5.07;3.92;;;;;;;16.18;87.07;100530.53;5012569;28;20075;-80
2023/07/23 05:42:19;;;;;;;5.35;3.72;;;;;;;16.18;86.02;100533.19;5013185;28;20060;-80
2023/07/23 05:44:44;;;;;;;5.43;3.55;;;;;;;16.16;87.10;100537.00;5031626;28;20037;-80
2023/07/23 05:47:09;;;;;;;7.55;3.60;;;;;;;16.15;86.37;100530.84;5011059;28;20021;-79
2023/07/23 05:49:35;;;;;;;4.50;3.63;;;;;;;16.13;86.54;100532.81;4998351;28;20045;-80
2023/07/23 05:52:00;;;;;;;8.40;3.97;;;;;;;16.13;87.07;100532.00;5011759;28;20351;-81
2023/07/23 05:54:26;;;;;;;6.03;3.55;;;;;;;16.12;86.73;100536.47;5029406;28;20022;-80
2023/07/23 05:56:51;;;;;;;8.68;4.03;;;;;;;16.13;86.04;100532.81;5027761;28;20033;-79
2023/07/23 05:59:17;;;;;;;8.60;3.53;;;;;;;16.13;85.40;100532.00;5030588;28;20048;-80
2023/07/23 06:01:42;;;;;;;5.45;3.75;;;;;;;16.14;85.50;100534.50;5011310;28;20493;-80
2023/07/23 06:04:08;;;;;;;5.22;3.90;;;;;;;16.17;85.81;100523.56;5031859;28;20029;-80
2023/07/23 06:06:34;;;;;;;6.25;4.10;;;;;;;16.19;86.54;100524.22;5031643;28;20053;-80
2023/07/23 06:08:59;;;;;;;4.70;3.72;;;;;;;16.21;86.99;100530.22;5030811;28;20030;-79
2023/07/23 06:11:24;;;;;;;5.63;3.83;;;;;;;16.22;87.93;100539.84;5030748;28;20033;-80
2023/07/23 06:13:50;;;;;;;7.32;3.65;;;;;;;16.20;86.52;100536.50;5031431;28;20025;-80
2023/07/23 06:16:15;;;;;;;6.95;4.00;;;;;;;16.19;88.14;100532.19;5011217;28;20522;-79
2023/07/23 06:18:40;;;;;;;4.53;3.80;;;;;;;16.14;88.74;100534.50;5031524;28;20033;-79
2023/07/23 06:21:06;;;;;;;9.07;4.40;;;;;;;16.08;89.78;100544.91;5030162;28;20029;-80
2023/07/23 06:23:32;;;;;;;6.05;4.15;;;;;;;16.03;90.28;100539.25;5029107;28;20438;-74
2023/07/23 06:25:58;;;;;;;6.30;3.97;;;;;;;15.97;90.50;100538.00;5024305;28;20057;-75
2023/07/23 06:28:23;;;;;;;5.72;4.00;;;;;;;15.95;89.47;100545.28;5017749;28;20113;-75
2023/07/23 06:30:53;;;;;;;7.63;4.25;;;;;;;15.94;90.74;100543.63;5028958;28;20394;-74
2023/07/23 06:33:19;;;;;;;5.30;4.10;;;;;;;15.94;90.44;100541.81;5028693;28;20120;-75
2023/07/23 06:35:45;;;;;;;6.53;4.10;;;;;;;15.96;91.09;100546.97;5029957;28;20097;-74
2023/07/23 06:38:10;;;;;;;6.93;4.32;;;;;;;15.97;91.73;100552.13;5030491;28;20025;-75
2023/07/23 06:40:36;;;;;;;5.68;3.78;;;;;;;15.99;91.01;100552.78;5029282;28;20040;-75
2023/07/23 06:43:02;;;;;;;6.28;4.05;;;;;;;16.01;90.98;100557.97;5029897;28;20029;-75
2023/07/23 06:45:27;;;;;;;6.80;4.00;;;;;;;15.99;90.78;100567.88;5028916;28;20056;-79
2023/07/23 06:47:53;;;;;;;5.50;4.25;;;;;;;15.96;92.37;100578.81;5012516;28;20041;-79
2023/07/23 06:50:18;;;;;;;5.20;4.20;;;;;;;15.93;92.63;100573.81;5008834;28;20045;-79
2023/07/23 06:52:44;;;;;;;4.85;4.10;;;;;;;15.90;94.10;100574.13;5030120;28;20469;-79
2023/07/23 06:55:10;;;;;;;6.80;4.38;;;;;;;15.84;95.74;100569.44;5027828;28;20028;-78
2023/07/23 06:57:35;;;;;;;7.80;4.93;;;;;;;15.71;97.12;100576.97;5029830;28;20025;-78
2023/07/23 07:00:01;;;;;;;7.05;5.10;;;;;;;15.66;97.95;100577.44;5029510;28;20208;-78
2023/07/23 07:02:26;;;;;;;6.63;5.05;;;;;;;15.61;99.09;100572.59;5028623;28;20073;-77
2023/07/23 07:04:52;;;;;;;7.38;4.90;;;;;;;15.53;99.34;100583.06;5029105;28;20029;-77
2023/07/23 07:07:17;;;;;;;7.93;5.05;;;;;;;15.52;100.00;100578.75;5029187;28;20029;-79
2023/07/23 07:09:43;;;;;;;5.82;4.82;;;;;;;15.46;100.00;100570.56;5011071;28;20449;-79
2023/07/23 07:12:08;;;;;;;6.35;5.63;;;;;;;15.39;100.00;100585.41;5019431;28;20061;-80
2023/07/23 07:14:34;;;;;;;10.07;5.40;;;;;;;15.31;100.00;100572.94;5012603;28;20112;-79
2023/07/23 07:16:59;;;;;;;7.03;5.55;;;;;;;15.30;100.00;100571.25;5029021;28;20037;-79
2023/07/23 07:19:24;;;;;;;8.00;5.38;;;;;;;15.30;100.00;100566.78;5025872;28;20112;-80
2023/07/23 07:21:50;;;;;;;7.45;5.78;;;;;;;15.30;100.00;100565.97;5028861;28;20044;-81
2023/07/23 07:24:17;;;;;;;7.47;5.70;;;;;;;15.29;100.00;100566.94;5026567;28;20039;-80
2023/07/23 07:26:43;;;;;;;8.00;5.68;;;;;;;15.30;100.00;100571.25;5008353;28;20482;-81
2023/07/23 07:29:08;;;;;;;7.30;5.25;;;;;;;15.35;100.00;100575.13;5029835;28;20093;-81
2023/07/23 07:31:34;;;;;;;7.90;5.63;;;;;;;15.34;100.00;100570.81;5029562;28;20493;-80
2023/07/23 07:33:59;;;;;;;7.97;6.07;;;;;;;15.34;100.00;100577.94;5028627;28;20029;-79
2023/07/23 07:36:25;;;;;;;7.65;5.53;;;;;;;15.35;100.00;100571.63;5010856;28;20021;-79
2023/07/23 07:38:50;;;;;;;10.23;6.30;;;;;;;15.34;100.00;100567.31;5027253;28;20021;-79
2023/07/23 07:41:15;;;;;;;7.38;5.65;;;;;;;15.36;100.00;100571.50;5030478;28;20096;-80
2023/07/23 07:43:44;;;;;;;10.80;6.18;;;;;;;15.44;100.00;100562.78;5021458;28;20095;-80
2023/07/23 07:46:09;;;;;;;8.82;5.95;;;;;;;15.46;100.00;100571.41;5035635;28;20070;-79
2023/07/23 07:48:35;;;;;;;8.32;6.43;;;;;;;15.56;100.00;100566.00;5013018;28;20041;-80
2023/07/23 07:51:04;;;;;;;10.35;6.55;;;;;;;15.55;100.00;100565.19;5031241;28;20510;-79
2023/07/23 07:53:30;;;;;;;9.70;6.68;;;;;;;15.61;100.00;100567.28;5038392;28;20021;-80
2023/07/23 07:55:57;;;;;;;8.75;6.15;;;;;;;15.59;100.00;100571.88;5027761;28;20088;-80
2023/07/23 07:58:26;;;;;;;7.85;6.57;;;;;;;15.59;100.00;100571.88;5025950;28;20032;-80
2023/07/23 08:00:52;;;;;;;7.70;6.15;;;;;;;15.58;100.00;100572.03;5025184;28;20188;-80
2023/07/23 08:03:18;;;;;;;8.88;6.70;;;;;;;15.60;100.00;100570.06;5031391;28;20474;-81
2023/07/23 08:05:44;;;;;;;8.07;6.53;;;;;;;15.65;100.00;100566.00;5010962;28;20414;-79
2023/07/23 08:08:10;;;;;;;8.77;6.38;;;;;;;15.63;100.00;100565.31;5031605;28;20036;-79
2023/07/23 08:10:35;;;;;;;8.05;6.45;;;;;;;15.73;100.00;100561.72;5043109;28;20033;-78
2023/07/23 08:13:02;;;;;;;8.52;6.07;;;;;;;15.74;100.00;100569.53;5017265;28;20304;-79
2023/07/23 08:15:30;;;;;;;7.75;6.10;;;;;;;15.75;100.00;100565.91;5010783;28;20039;-79
2023/07/23 08:17:55;;;;;;;8.63;6.30;;;;;;;15.77;100.00;100563.91;5028971;28;20037;-75
2023/07/23 08:20:21;;;;;;;8.18;6.10;;;;;;;15.79;100.00;100566.41;5029588;28;20040;-75
2023/07/23 08:22:46;;;;;;;6.57;5.72;;;;;;;15.87;100.00;100571.78;5035893;28;20039;-74
2023/07/23 08:25:12;;;;;;;7.28;5.70;;;;;;;15.92;100.00;100564.19;5029082;28;20029;-74
2023/07/23 08:27:38;;;;;;;6.82;5.60;;;;;;;15.94;100.00;100559.56;5023928;28;20030;-74
2023/07/23 08:30:06;;;;;;;5.65;5.10;;;;;;;16.03;100.00;100563.97;5029746;28;20028;-74
2023/07/23 08:32:32;;;;;;;7.18;5.32;;;;;;;16.08;100.00;100566.97;5035449;28;20024;-74
2023/07/23 08:34:58;;;;;;;7.40;5.10;;;;;;;16.05;100.00;100566.47;5047799;28;20045;-74
2023/07/23 08:37:24;;;;;;;5.82;4.93;;;;;;;16.12;100.00;100559.53;5010692;28;20021;-76
2023/07/23 08:39:50;;;;;;;5.65;4.68;;;;;;;16.11;100.00;100555.22;5023993;28;20029;-74
2023/07/23 08:42:47;;;;;;;6.47;4.20;;;;;;;16.13;100.00;100561.19;5035025;28;20135;-75
2023/07/23 08:45:44;;;;;;;4.60;4.10;;;;;;;16.14;100.00;100562.84;4990275;28;20116;-74
2023/07/23 08:48:19;;;;;;;6.00;3.75;;;;;;;16.05;100.00;100555.84;5009708;28;20028;-74
2023/07/23 08:50:49;;;;;;;4.35;3.47;;;;;;;16.05;100.00;100567.28;5048336;28;20029;-75
2023/07/23 08:53:16;;;;;;;3.63;3.33;;;;;;;16.07;100.00;100562.66;5030027;28;20017;-74
2023/07/23 08:55:45;;;;;;;4.25;3.38;;;;;;;16.11;100.00;100556.03;5028176;28;20105;-75
2023/07/23 08:58:19;;;;;;;4.15;3.40;;;;;;;16.15;100.00;100562.69;5005391;28;20504;-75
2023/07/23 09:00:47;;;;;;;4.93;3.53;;;;;;;16.19;100.00;100564.03;5002896;28;20037;-74
2023/07/23 09:03:19;;;;;;;4.13;3.38;;;;;;;16.19;100.00;100564.03;5005407;28;20124;-75
2023/07/23 09:05:45;;;;;;;5.95;3.50;;;;;;;16.22;100.00;100558.44;5018746;28;20057;-75
2023/07/23 09:08:10;;;;;;;3.35;3.05;;;;;;;16.15;100.00;100562.69;5026579;28;20121;-75
2023/07/23 09:10:35;;;;;;;4.68;3.25;;;;;;;16.20;100.00;100560.41;5040313;28;20017;-75
2023/07/23 09:13:13;;;;;;;3.47;3.17;;;;;;;16.24;100.00;100560.91;5041758;28;20022;-75
2023/07/23 09:15:39;;;;;;;3.90;3.50;;;;;;;16.24;100.00;100572.38;5025768;28;20040;-75
2023/07/23 09:18:05;;;;;;;3.42;3.13;;;;;;;16.22;100.00;100569.03;5040006;28;20028;-74
2023/07/23 09:20:30;;;;;;;3.40;3.10;;;;;;;16.20;100.00;100568.38;5039527;28;20112;-74
2023/07/23 09:23:04;;;;;;;3.83;3.00;;;;;;;16.18;100.00;100567.69;5030029;28;20477;-74
2023/07/23 09:25:31;;;;;;;3.63;3.10;;;;;;;16.15;100.00;100573.31;5030103;28;20489;-74
2023/07/23 09:27:56;;;;;;;5.05;3.00;;;;;;;16.16;100.00;100574.16;5029810;28;20064;-74
2023/07/23 09:30:22;;;;;;;3.88;3.40;;;;;;;16.18;100.00;100575.66;5025374;28;20033;-72
2023/07/23 09:32:58;;;;;;;4.45;3.13;;;;;;;16.13;100.00;100575.28;5012708;28;20018;-73
2023/07/23 09:35:24;;;;;;;4.13;3.40;;;;;;;16.05;100.00;100577.91;5049018;28;20029;-72
2023/07/23 09:37:57;;;;;;;4.63;3.53;;;;;;;16.04;100.00;100576.22;5047571;28;20025;-73
2023/07/23 09:40:44;;;;;;;;;;;;;;;16.13;100.00;100577.13;5034343;28;20036;-74
2023/07/23 09:43:09;;;;;;;4.00;3.42;;;;;;;16.08;100.00;100577.59;5047302;28;19909;-74
2023/07/23 09:45:39;;;;;;;4.13;3.72;;;;;;;16.04;100.00;100578.91;5041378;28;20505;-73
2023/07/23 09:48:07;;;;;;;3.80;3.45;;;;;;;16.10;100.00;100575.59;4995502;28;20029;-73
2023/07/23 09:50:33;;;;;;;5.18;3.60;;;;;;;16.12;100.00;100570.16;5016035;28;20493;-73
2023/07/23 09:52:58;;;;;;;4.00;3.58;;;;;;;16.13;100.00;100575.28;5050998;28;20046;-73
2023/07/23 09:55:27;;;;;;;4.47;3.63;;;;;;;16.13;100.00;100575.28;5048399;28;20033;-73
2023/07/23 09:57:53;;;;;;;4.05;3.60;;;;;;;16.09;100.00;100583.72;5038826;28;20036;-74
2023/07/23 10:00:19;;;;;;;4.88;3.13;;;;;;;16.06;100.00;100590.19;5037442;28;20108;-74
2023/07/23 10:02:50;;;;;;;3.90;3.50;;;;;;;16.02;100.00;100591.47;5042380;28;20539;-73
2023/07/23 10:05:18;;;;;;;3.70;3.30;;;;;;;15.99;100.00;100592.59;5024156;28;20047;-73
2023/07/23 10:07:47;;;;;;;3.67;3.22;;;;;;;15.94;100.00;100591.41;5036192;28;20112;-73
2023/07/23 10:10:13;;;;;;;4.18;3.20;;;;;;;15.93;100.00;100600.34;5033150;28;20091;-73
2023/07/23 10:12:39;;;;;;;3.53;3.22;;;;;;;15.95;100.00;100590.41;5012133;28;20030;-74
2023/07/23 10:15:06;;;;;;;3.13;2.83;;;;;;;15.94;100.00;100596.69;5023605;28;20029;-74
2023/07/23 10:17:32;;;;;;;3.78;3.28;;;;;;;15.93;100.00;100595.88;5032367;28;20508;-74
2023/07/23 10:19:58;;;;;;;3.53;3.10;;;;;;;15.96;100.00;100598.22;5029260;28;20029;-74
2023/07/23 10:22:33;;;;;;;3.10;2.70;;;;;;;15.97;100.00;100599.88;5029086;28;20071;-74
2023/07/23 10:24:58;;;;;;;3.75;3.13;;;;;;;16.00;100.00;100598.72;5031069;28;20076;-75
2023/07/23 10:27:23;;;;;;;3.42;3.05;;;;;;;16.01;100.00;100596.91;5024355;28;20025;-75
2023/07/23 10:30:14;;;;;;;3.28;2.97;;;;;;;16.04;100.00;100599.28;5032892;28;20029;-75
2023/07/23 10:32:40;;;;;;;3.85;3.05;;;;;;;16.03;100.00;100601.09;5031303;28;20385;-75
2023/07/23 10:35:05;;;;;;;4.22;3.35;;;;;;;16.07;100.00;100598.97;5024845;28;20021;-75
2023/07/23 10:37:31;;;;;;;4.35;3.10;;;;;;;16.08;100.00;100598.81;5046928;28;20021;-75
2023/07/23 10:39:59;;;;;;;5.20;3.35;;;;;;;16.08;100.00;100587.38;5032450;28;20021;-74
2023/07/23 10:42:44;;;;;;;3.72;3.20;;;;;;;16.11;100.00;100606.47;5031728;28;20513;-75
2023/07/23 10:45:26;;;;;;;3.63;3.30;;;;;;;16.11;100.00;100598.50;5047362;28;20388;-75
2023/07/23 10:48:00;;;;;;;3.63;2.75;;;;;;;16.16;100.00;100600.69;5044768;28;20040;-75
2023/07/23 10:50:30;;;;;;;3.97;3.22;;;;;;;16.21;100.00;100590.44;5039797;28;20032;-74
2023/07/23 10:53:03;;;;;;;3.75;3.30;;;;;;;16.26;100.00;100602.25;5031997;28;20032;-75
2023/07/23 10:55:36;;;;;;;4.28;3.80;;;;;;;16.33;100.00;100591.84;5036847;28;20277;-75
2023/07/23 10:58:11;;;;;;;5.13;3.30;;;;;;;16.39;100.00;100598.34;5029046;28;20021;-74
2023/07/23 11:00:41;;;;;;;4.07;3.35;;;;;;;16.43;100.00;100591.75;5024709;28;20029;-75
2023/07/23 11:03:11;;;;;;;4.20;3.80;;;;;;;16.49;100.00;100599.91;4997159;28;20026;-74
2023/07/23 11:05:42;;;;;;;4.90;4.07;;;;;;;16.56;100.00;100597.44;5030383;28;20163;-74
2023/07/23 11:08:27;;;;;;;4.47;3.47;;;;;;;16.65;100.00;100598.31;5037746;28;20029;-74
2023/07/23 11:10:59;;;;;;;5.30;3.95;;;;;;;16.72;100.00;100596.72;5038149;28;20041;-74
2023/07/23 11:13:34;;;;;;;4.22;3.83;;;;;;;16.92;100.00;100598.97;5040675;28;20511;-75
2023/07/23 11:16:01;;;;;;;4.20;3.80;;;;;;;17.15;100.00;100599.22;5028874;28;20025;-75
2023/07/23 11:18:32;;;;;;;4.50;3.92;;;;;;;17.32;100.00;100604.59;5039114;28;20060;-75